Time;durP1;ratioP1;P1;durP2;ratioP2;P2;SDS_P1;SDS_P2;PMS_P1;PMS_P2;Temp;Humidity;BMP_temperature;BMP_pressure;BME280_temperature;BME280_humidity;BME280_pressure;Samples;Min_cycle;Max_cycle;Signal;HPM_P1;HPM_P2
2023/03/13 00:01:44;;;;;;;3.80;3.00;;;;;;;;;;4993992;28;20021;-64
2023/03/13 00:04:09;;;;;;;3.70;2.80;;;;;;;;;;4994636;28;20300;-65
2023/03/13 00:06:35;;;;;;;3.40;2.73;;;;;;;;;;5019168;28;20077;-64
2023/03/13 00:09:00;;;;;;;4.18;3.15;;;;;;;;;;5018254;28;20284;-63
2023/03/13 00:11:26;;;;;;;4.32;3.20;;;;;;;;;;5002343;28;20025;-65
2023/03/13 00:13:54;;;;;;;3.75;3.10;;;;;;;;;;5026183;28;20025;-64
2023/03/13 00:16:19;;;;;;;4.03;2.90;;;;;;;;;;5025676;28;20014;-65
2023/03/13 00:18:46;;;;;;;4.13;3.20;;;;;;;;;;5015353;28;20075;-64
2023/03/13 00:21:11;;;;;;;4.35;2.88;;;;;;;;;;5023327;28;20113;-64
2023/03/13 00:23:36;;;;;;;4.40;3.23;;;;;;;;;;5027537;28;20179;-65
2023/03/13 00:26:02;;;;;;;3.88;2.97;;;;;;;;;;5027039;28;20065;-64
2023/03/13 00:28:28;;;;;;;3.53;2.65;;;;;;;;;;5024660;28;20023;-64
2023/03/13 00:31:20;;;;;;;3.60;2.72;;;;;;;;;;5027488;28;20018;-65
2023/03/13 00:33:46;;;;;;;3.58;2.80;;;;;;;;;;5023487;28;20518;-66
2023/03/13 00:36:21;;;;;;;3.28;2.50;;;;;;;;;;4993575;28;20039;-64
2023/03/13 00:38:46;;;;;;;4.20;3.00;;;;;;;;;;5010678;28;20536;-64
2023/03/13 00:41:12;;;;;;;4.38;3.08;;;;;;;;;;5027055;28;20126;-63
2023/03/13 00:43:38;;;;;;;3.60;2.88;;;;;;;;;;5027421;28;20028;-65
2023/03/13 00:46:03;;;;;;;4.45;2.95;;;;;;;;;;5027668;28;20596;-64
2023/03/13 00:48:28;;;;;;;3.45;2.75;;;;;;;;;;5027234;28;20025;-65
2023/03/13 00:50:54;;;;;;;3.72;2.72;;;;;;;;;;5027256;28;20025;-64
2023/03/13 00:53:19;;;;;;;3.43;2.70;;;;;;;;;;5027614;28;20064;-63
2023/03/13 00:55:57;;;;;;;3.20;2.50;;;;;;;;;;5027135;28;20707;-65
2023/03/13 00:58:22;;;;;;;3.80;2.78;;;;;;;;;;5027091;28;20277;-63
2023/03/13 01:00:48;;;;;;;3.60;2.92;;;;;;;;;;5025991;28;20043;-65
2023/03/13 01:03:13;;;;;;;3.20;2.40;;;;;;;;;;5025075;28;20044;-64
2023/03/13 01:05:38;;;;;;;3.40;2.57;;;;;;;;;;5016860;28;20045;-64
2023/03/13 01:08:03;;;;;;;3.30;2.70;;;;;;;;;;5021650;28;20295;-66
2023/03/13 01:10:29;;;;;;;3.33;2.75;;;;;;;;;;5024888;28;20870;-65
2023/03/13 01:12:54;;;;;;;3.70;2.77;;;;;;;;;;5026378;28;20478;-63
2023/03/13 01:15:19;;;;;;;3.27;2.30;;;;;;;;;;5003316;28;20296;-64
2023/03/13 01:17:45;;;;;;;3.33;2.47;;;;;;;;;;5017198;28;20303;-65
2023/03/13 01:20:10;;;;;;;3.58;2.70;;;;;;;;;;5014158;28;20034;-64
2023/03/13 01:22:35;;;;;;;2.95;2.38;;;;;;;;;;5014271;28;20080;-65
2023/03/13 01:25:01;;;;;;;3.45;2.60;;;;;;;;;;5018709;28;20057;-64
2023/03/13 01:27:26;;;;;;;3.07;2.60;;;;;;;;;;5022400;28;20045;-64
2023/03/13 01:29:51;;;;;;;3.60;2.70;;;;;;;;;;5020896;28;20292;-65
2023/03/13 01:32:16;;;;;;;3.53;2.70;;;;;;;;;;5022122;28;20041;-64
2023/03/13 01:34:42;;;;;;;3.07;2.60;;;;;;;;;;5029894;28;20284;-65
2023/03/13 01:37:07;;;;;;;3.57;2.50;;;;;;;;;;5030758;28;20437;-65
2023/03/13 01:39:32;;;;;;;3.57;2.57;;;;;;;;;;5021007;28;20116;-65
2023/03/13 01:41:57;;;;;;;2.83;2.20;;;;;;;;;;5003247;28;20792;-65
2023/03/13 01:44:23;;;;;;;3.53;2.80;;;;;;;;;;5025568;28;20486;-64
2023/03/13 01:46:49;;;;;;;3.30;2.38;;;;;;;;;;5007364;28;20319;-64
2023/03/13 01:49:20;;;;;;;2.60;2.33;;;;;;;;;;5023571;28;20030;-64
2023/03/13 01:51:52;;;;;;;3.60;3.10;;;;;;;;;;5022358;28;20099;-63
2023/03/13 01:54:47;;;;;;;3.08;2.50;;;;;;;;;;4996723;28;20041;-65
2023/03/13 01:57:15;;;;;;;3.40;2.15;;;;;;;;;;4998193;28;21530;-65
2023/03/13 01:59:41;;;;;;;3.00;2.20;;;;;;;;;;5017449;28;20128;-65
2023/03/13 02:02:06;;;;;;;2.90;2.40;;;;;;;;;;4990922;28;20065;-65
2023/03/13 02:04:35;;;;;;;3.07;2.10;;;;;;;;;;5011555;28;20033;-65
2023/03/13 02:07:02;;;;;;;3.00;2.40;;;;;;;;;;4997852;28;20320;-65
2023/03/13 02:09:27;;;;;;;2.90;2.17;;;;;;;;;;5024734;28;20041;-66
2023/03/13 02:12:01;;;;;;;3.20;2.10;;;;;;;;;;5014543;28;20030;-65
2023/03/13 02:14:26;;;;;;;3.00;2.38;;;;;;;;;;5000781;28;20084;-62
2023/03/13 02:16:52;;;;;;;3.47;2.67;;;;;;;;;;5000788;28;20026;-64
2023/03/13 02:19:18;;;;;;;2.97;2.25;;;;;;;;;;5018231;28;20029;-66
2023/03/13 02:21:49;;;;;;;2.53;2.03;;;;;;;;;;4988388;28;20034;-64
2023/03/13 02:24:23;;;;;;;2.90;2.17;;;;;;;;;;4990373;28;20045;-65
2023/03/13 02:26:48;;;;;;;2.30;1.92;;;;;;;;;;5014066;28;20433;-67
2023/03/13 02:29:17;;;;;;;3.30;2.30;;;;;;;;;;5014913;28;20030;-65
2023/03/13 02:31:43;;;;;;;2.97;2.38;;;;;;;;;;5007637;28;20071;-64
2023/03/13 02:34:08;;;;;;;3.45;2.50;;;;;;;;;;5023654;28;20053;-63
2023/03/13 02:36:33;;;;;;;3.10;2.30;;;;;;;;;;5023661;28;20047;-64
2023/03/13 02:39:00;;;;;;;2.63;2.03;;;;;;;;;;5025464;28;20264;-62
2023/03/13 02:41:25;;;;;;;2.90;2.20;;;;;;;;;;5025470;28;20268;-64
2023/03/13 02:43:50;;;;;;;3.17;2.30;;;;;;;;;;5025347;28;20021;-64
2023/03/13 02:46:16;;;;;;;2.70;2.20;;;;;;;;;;5024991;28;20029;-64
2023/03/13 02:48:45;;;;;;;2.65;2.00;;;;;;;;;;5010849;28;20443;-65
2023/03/13 02:51:31;;;;;;;3.15;2.22;;;;;;;;;;5023973;28;20405;-65
2023/03/13 02:53:58;;;;;;;2.60;2.00;;;;;;;;;;5017565;28;20432;-64
2023/03/13 02:56:24;;;;;;;3.08;2.30;;;;;;;;;;4988159;28;20045;-64
2023/03/13 02:58:49;;;;;;;2.72;2.17;;;;;;;;;;4996308;28;20029;-66
2023/03/13 03:01:14;;;;;;;2.70;2.00;;;;;;;;;;5021396;28;20038;-64
2023/03/13 03:03:40;;;;;;;2.77;2.00;;;;;;;;;;5015161;28;20390;-65
2023/03/13 03:06:06;;;;;;;3.03;2.23;;;;;;;;;;5022714;28;20064;-65
2023/03/13 03:08:31;;;;;;;2.30;1.85;;;;;;;;;;5013188;28;20337;-64
2023/03/13 03:10:56;;;;;;;2.97;2.00;;;;;;;;;;5017570;28;20068;-65
2023/03/13 03:13:21;;;;;;;2.75;2.05;;;;;;;;;;5009661;28;20029;-65
2023/03/13 03:15:47;;;;;;;2.40;1.67;;;;;;;;;;5017064;28;20135;-66
2023/03/13 03:18:12;;;;;;;3.83;1.90;;;;;;;;;;5024900;28;20268;-67
2023/03/13 03:20:37;;;;;;;2.80;2.23;;;;;;;;;;5022258;28;20437;-65
2023/03/13 03:23:02;;;;;;;2.60;2.23;;;;;;;;;;5022058;28;20844;-63
2023/03/13 03:25:27;;;;;;;3.03;2.10;;;;;;;;;;5018919;28;20731;-66
2023/03/13 03:27:53;;;;;;;3.13;1.93;;;;;;;;;;5013257;28;20311;-65
2023/03/13 03:30:18;;;;;;;2.43;1.97;;;;;;;;;;5011931;28;20287;-62
2023/03/13 03:32:43;;;;;;;2.90;2.03;;;;;;;;;;5012213;28;20054;-66
2023/03/13 03:35:08;;;;;;;3.27;2.20;;;;;;;;;;5001164;28;20100;-65
2023/03/13 03:37:34;;;;;;;3.30;2.00;;;;;;;;;;5014147;28;20288;-67
2023/03/13 03:39:59;;;;;;;3.50;2.10;;;;;;;;;;5010406;28;20800;-65
2023/03/13 03:42:24;;;;;;;3.00;2.13;;;;;;;;;;5009745;28;20395;-63
2023/03/13 03:44:49;;;;;;;2.92;2.00;;;;;;;;;;4987533;28;20104;-64
2023/03/13 03:47:14;;;;;;;2.40;1.90;;;;;;;;;;5007536;28;20518;-66
2023/03/13 03:49:40;;;;;;;2.57;2.00;;;;;;;;;;5012647;28;20653;-64
2023/03/13 03:52:05;;;;;;;2.92;1.90;;;;;;;;;;5019042;28;20347;-64
2023/03/13 03:54:30;;;;;;;4.03;2.00;;;;;;;;;;5019791;28;20362;-64
2023/03/13 03:56:56;;;;;;;3.00;2.10;;;;;;;;;;5019877;28;20529;-65
2023/03/13 03:59:21;;;;;;;2.90;1.90;;;;;;;;;;5019914;28;20822;-64
2023/03/13 04:01:46;;;;;;;2.55;1.92;;;;;;;;;;5018888;28;20280;-63
2023/03/13 04:04:11;;;;;;;2.80;2.00;;;;;;;;;;5005579;28;20026;-64
2023/03/13 04:06:37;;;;;;;2.80;1.80;;;;;;;;;;5023118;28;20793;-66
2023/03/13 04:09:02;;;;;;;2.47;1.70;;;;;;;;;;5019421;28;20281;-65
2023/03/13 04:11:27;;;;;;;2.38;1.80;;;;;;;;;;5012998;28;20712;-63
2023/03/13 04:13:52;;;;;;;2.30;1.80;;;;;;;;;;5022735;28;20104;-64
2023/03/13 04:16:18;;;;;;;2.57;1.97;;;;;;;;;;5018056;28;20069;-64
2023/03/13 04:18:43;;;;;;;3.00;2.00;;;;;;;;;;5015243;28;20463;-64
2023/03/13 04:21:08;;;;;;;2.50;1.80;;;;;;;;;;5013275;28;20313;-65
2023/03/13 04:23:33;;;;;;;3.03;1.90;;;;;;;;;;5013092;28;20042;-63
2023/03/13 04:25:58;;;;;;;2.73;1.93;;;;;;;;;;5014075;28;20045;-63
2023/03/13 04:28:24;;;;;;;2.50;1.90;;;;;;;;;;5000334;28;20296;-63
2023/03/13 04:30:49;;;;;;;2.53;1.60;;;;;;;;;;5000152;28;20287;-64
2023/03/13 04:33:14;;;;;;;2.07;1.70;;;;;;;;;;5009438;28;20803;-64
2023/03/13 04:35:39;;;;;;;2.53;1.77;;;;;;;;;;5019391;28;20287;-64
2023/03/13 04:38:05;;;;;;;1.93;1.50;;;;;;;;;;5021383;28;20272;-65
2023/03/13 04:40:30;;;;;;;2.77;2.00;;;;;;;;;;5021636;28;20034;-62
2023/03/13 04:42:55;;;;;;;2.37;1.80;;;;;;;;;;5008061;28;20105;-62
2023/03/13 04:45:20;;;;;;;2.17;1.60;;;;;;;;;;4984208;28;20833;-62
2023/03/13 04:47:46;;;;;;;2.40;1.73;;;;;;;;;;5007505;28;20308;-66
2023/03/13 04:50:11;;;;;;;2.88;2.15;;;;;;;;;;5020637;28;20288;-64
2023/03/13 04:52:36;;;;;;;2.27;1.80;;;;;;;;;;5022416;28;20037;-64
2023/03/13 04:55:01;;;;;;;2.43;1.80;;;;;;;;;;5013738;28;20280;-64
2023/03/13 04:57:26;;;;;;;2.40;1.73;;;;;;;;;;5018252;28;20034;-69
2023/03/13 04:59:52;;;;;;;2.03;1.50;;;;;;;;;;4993838;28;20864;-70
2023/03/13 05:02:17;;;;;;;3.77;2.03;;;;;;;;;;5014550;28;20537;-67
2023/03/13 05:04:42;;;;;;;2.85;1.50;;;;;;;;;;5019985;28;20328;-67
2023/03/13 05:07:07;;;;;;;3.07;1.53;;;;;;;;;;5017867;28;20148;-67
2023/03/13 05:09:33;;;;;;;2.53;1.63;;;;;;;;;;5014165;28;20677;-67
2023/03/13 05:11:58;;;;;;;2.23;1.60;;;;;;;;;;5012499;28;20410;-67
2023/03/13 05:14:23;;;;;;;2.27;1.60;;;;;;;;;;5018324;28;20665;-68
2023/03/13 05:16:48;;;;;;;4.05;2.00;;;;;;;;;;5012222;28;20637;-66
2023/03/13 05:19:14;;;;;;;2.57;1.80;;;;;;;;;;5015597;28;20052;-66
2023/03/13 05:21:39;;;;;;;2.20;1.70;;;;;;;;;;5010193;28;20034;-67
2023/03/13 05:24:04;;;;;;;2.10;1.70;;;;;;;;;;5019689;28;20787;-65
2023/03/13 05:26:29;;;;;;;2.72;1.80;;;;;;;;;;5015710;28;20995;-67
2023/03/13 05:28:55;;;;;;;2.70;1.80;;;;;;;;;;5014114;28;20493;-63
2023/03/13 05:31:20;;;;;;;2.30;1.60;;;;;;;;;;5022476;28;20763;-62
2023/03/13 05:33:45;;;;;;;2.23;1.80;;;;;;;;;;5016928;28;20505;-65
2023/03/13 05:36:10;;;;;;;3.10;1.73;;;;;;;;;;4992103;28;20681;-64
2023/03/13 05:38:35;;;;;;;3.07;2.00;;;;;;;;;;5023245;28;20662;-65
2023/03/13 05:41:01;;;;;;;2.70;1.63;;;;;;;;;;5024119;28;20441;-64
2023/03/13 05:43:26;;;;;;;4.37;1.90;;;;;;;;;;5009380;28;20078;-64
2023/03/13 05:45:51;;;;;;;4.37;2.07;;;;;;;;;;5019542;28;20650;-63
2023/03/13 05:48:16;;;;;;;4.28;1.80;;;;;;;;;;5010636;28;20499;-64
2023/03/13 05:50:42;;;;;;;3.77;2.07;;;;;;;;;;4994205;28;20038;-65
2023/03/13 05:53:07;;;;;;;4.88;2.05;;;;;;;;;;5017292;28;20069;-66
2023/03/13 05:55:32;;;;;;;5.23;2.10;;;;;;;;;;5006259;28;20026;-65
2023/03/13 05:57:57;;;;;;;4.37;1.90;;;;;;;;;;5019297;28;20032;-66
2023/03/13 06:00:23;;;;;;;6.77;2.37;;;;;;;;;;5023592;28;20060;-67
2023/03/13 06:02:48;;;;;;;5.18;2.13;;;;;;;;;;5010711;28;20883;-67
2023/03/13 06:05:13;;;;;;;5.10;1.87;;;;;;;;;;5011330;28;20037;-66
2023/03/13 06:07:38;;;;;;;5.13;2.10;;;;;;;;;;5005520;28;20073;-65
2023/03/13 06:10:04;;;;;;;4.97;2.07;;;;;;;;;;5021266;28;20045;-66
2023/03/13 06:12:29;;;;;;;3.60;1.80;;;;;;;;;;5006248;28;20100;-65
2023/03/13 06:14:54;;;;;;;3.60;1.73;;;;;;;;;;4988534;28;20103;-67
2023/03/13 06:17:19;;;;;;;3.90;1.70;;;;;;;;;;5006944;28;20557;-66
2023/03/13 06:19:45;;;;;;;6.30;2.30;;;;;;;;;;5010092;28;20574;-66
2023/03/13 06:22:10;;;;;;;4.57;2.45;;;;;;;;;;5015158;28;20065;-65
2023/03/13 06:24:36;;;;;;;4.33;1.90;;;;;;;;;;5010570;28;20046;-65
2023/03/13 06:27:01;;;;;;;4.93;1.90;;;;;;;;;;5013156;28;20280;-66
2023/03/13 06:29:26;;;;;;;4.87;1.80;;;;;;;;;;5003754;28;20312;-66
2023/03/13 06:31:51;;;;;;;4.03;2.07;;;;;;;;;;5017802;28;20288;-62
2023/03/13 06:34:17;;;;;;;6.73;2.87;;;;;;;;;;5010582;28;20900;-63
2023/03/13 06:36:42;;;;;;;6.25;2.13;;;;;;;;;;5010299;28;20315;-63
2023/03/13 06:39:08;;;;;;;3.90;1.83;;;;;;;;;;5018968;28;20041;-63
2023/03/13 06:41:33;;;;;;;4.35;2.05;;;;;;;;;;5014769;28;21067;-62
2023/03/13 06:43:58;;;;;;;5.47;2.10;;;;;;;;;;4989576;28;20455;-63
2023/03/13 06:46:24;;;;;;;4.80;1.90;;;;;;;;;;5005953;28;20442;-62
2023/03/13 06:48:49;;;;;;;4.32;1.67;;;;;;;;;;5010652;28;21008;-64
2023/03/13 06:51:15;;;;;;;4.37;2.10;;;;;;;;;;5000021;28;20044;-63
2023/03/13 06:53:41;;;;;;;4.00;1.73;;;;;;;;;;5012733;28;20280;-63
2023/03/13 06:56:06;;;;;;;4.80;2.00;;;;;;;;;;5024019;28;20414;-64
2023/03/13 06:58:31;;;;;;;3.65;2.10;;;;;;;;;;5009351;28;20053;-63
2023/03/13 07:00:57;;;;;;;4.87;2.03;;;;;;;;;;5014467;28;20502;-63
2023/03/13 07:03:23;;;;;;;3.92;1.92;;;;;;;;;;5023156;28;20512;-63
2023/03/13 07:05:48;;;;;;;5.25;2.08;;;;;;;;;;5024411;28;20115;-63
2023/03/13 07:08:13;;;;;;;3.10;2.00;;;;;;;;;;5002821;28;20049;-64
2023/03/13 07:10:41;;;;;;;4.70;2.07;;;;;;;;;;5018561;28;20291;-62
2023/03/13 07:13:06;;;;;;;3.33;1.98;;;;;;;;;;5006854;28;20058;-62
2023/03/13 07:15:31;;;;;;;4.40;1.90;;;;;;;;;;5014401;28;20056;-64
2023/03/13 07:17:57;;;;;;;3.27;1.87;;;;;;;;;;5018775;28;20048;-63
2023/03/13 07:20:22;;;;;;;4.10;1.92;;;;;;;;;;5015978;28;20038;-63
2023/03/13 07:22:52;;;;;;;3.77;1.90;;;;;;;;;;5011262;28;20026;-62
2023/03/13 07:25:17;;;;;;;3.72;1.63;;;;;;;;;;5003464;28;20354;-63
2023/03/13 07:27:42;;;;;;;5.03;1.80;;;;;;;;;;5029369;28;20037;-63
2023/03/13 07:30:07;;;;;;;5.43;1.90;;;;;;;;;;5024493;28;20304;-65
2023/03/13 07:32:33;;;;;;;3.05;1.60;;;;;;;;;;5007475;28;20140;-64
2023/03/13 07:34:58;;;;;;;4.30;2.13;;;;;;;;;;5009894;28;20045;-64
2023/03/13 07:37:23;;;;;;;3.40;1.47;;;;;;;;;;5012984;28;20041;-64
2023/03/13 07:39:49;;;;;;;4.00;2.27;;;;;;;;;;5009150;28;20281;-63
2023/03/13 07:42:14;;;;;;;3.47;1.80;;;;;;;;;;5009514;28;20291;-63
2023/03/13 07:44:39;;;;;;;3.37;1.67;;;;;;;;;;5017805;28;20045;-64
2023/03/13 07:47:05;;;;;;;4.47;2.23;;;;;;;;;;4995642;28;20049;-64
2023/03/13 07:49:30;;;;;;;5.15;2.10;;;;;;;;;;5014761;28;20060;-64
2023/03/13 07:51:56;;;;;;;3.28;1.77;;;;;;;;;;5021053;28;20509;-65
2023/03/13 07:54:21;;;;;;;3.10;1.63;;;;;;;;;;5013681;28;20053;-64
2023/03/13 07:56:47;;;;;;;3.65;1.88;;;;;;;;;;5012089;28;20042;-63
2023/03/13 07:59:12;;;;;;;2.40;1.70;;;;;;;;;;5013825;28;20513;-65
2023/03/13 08:01:38;;;;;;;3.40;1.70;;;;;;;;;;5022552;28;20095;-65
2023/03/13 08:04:04;;;;;;;2.80;1.80;;;;;;;;;;5013641;28;20860;-68
2023/03/13 08:06:29;;;;;;;3.78;1.88;;;;;;;;;;5025002;28;20383;-66
2023/03/13 08:08:58;;;;;;;3.35;1.80;;;;;;;;;;5012633;28;20038;-63
2023/03/13 08:11:24;;;;;;;4.07;1.83;;;;;;;;;;5009023;28;20525;-64
2023/03/13 08:13:49;;;;;;;4.28;1.73;;;;;;;;;;4975614;28;20042;-63
2023/03/13 08:16:15;;;;;;;2.90;1.85;;;;;;;;;;5011606;28;20080;-63
2023/03/13 08:18:41;;;;;;;3.40;1.95;;;;;;;;;;5016909;28;20524;-64
2023/03/13 08:21:10;;;;;;;2.50;1.60;;;;;;;;;;5022611;28;20084;-64
2023/03/13 08:23:36;;;;;;;4.93;1.80;;;;;;;;;;4996563;28;20034;-64
2023/03/13 08:26:02;;;;;;;3.75;1.77;;;;;;;;;;5020917;28;20041;-64
2023/03/13 08:28:27;;;;;;;3.20;1.80;;;;;;;;;;5020795;28;20041;-65
2023/03/13 08:30:52;;;;;;;2.57;1.60;;;;;;;;;;5017121;28;20120;-62
2023/03/13 08:33:18;;;;;;;3.63;2.20;;;;;;;;;;5010122;28;20252;-66
2023/03/13 08:35:43;;;;;;;7.22;5.03;;;;;;;;;;5010795;28;20287;-65
2023/03/13 08:38:08;;;;;;;4.50;2.30;;;;;;;;;;5016038;28;20053;-62
2023/03/13 08:40:33;;;;;;;3.00;1.83;;;;;;;;;;5011422;28;20301;-63
2023/03/13 08:42:59;;;;;;;3.30;1.80;;;;;;;;;;5010822;28;20389;-62
2023/03/13 08:45:24;;;;;;;3.75;1.90;;;;;;;;;;5010966;28;20116;-63
2023/03/13 08:47:51;;;;;;;4.00;1.70;;;;;;;;;;5011618;28;20050;-63
2023/03/13 08:50:16;;;;;;;4.32;1.85;;;;;;;;;;5001044;28;20822;-62
2023/03/13 08:52:43;;;;;;;3.28;2.22;;;;;;;;;;4996296;28;20030;-63
2023/03/13 08:55:08;;;;;;;3.47;1.83;;;;;;;;;;5009593;28;20037;-64
2023/03/13 08:57:33;;;;;;;3.85;1.70;;;;;;;;;;5010772;28;20026;-63
2023/03/13 08:59:58;;;;;;;2.77;2.03;;;;;;;;;;5012488;28;20545;-62
2023/03/13 09:02:24;;;;;;;3.67;1.70;;;;;;;;;;5013130;28;20514;-62
2023/03/13 09:04:49;;;;;;;3.33;1.73;;;;;;;;;;4995823;28;20510;-62
2023/03/13 09:07:14;;;;;;;2.53;1.83;;;;;;;;;;5004401;28;20057;-64
2023/03/13 09:09:39;;;;;;;2.65;2.08;;;;;;;;;;5011661;28;20198;-64
2023/03/13 09:12:05;;;;;;;2.25;1.52;;;;;;;;;;5010739;28;20040;-63
2023/03/13 09:14:30;;;;;;;2.65;1.77;;;;;;;;;;5000981;28;20629;-63
2023/03/13 09:16:56;;;;;;;3.73;2.00;;;;;;;;;;5016696;28;20509;-61
2023/03/13 09:19:21;;;;;;;2.58;1.70;;;;;;;;;;4998974;28;20748;-62
2023/03/13 09:21:48;;;;;;;3.67;1.70;;;;;;;;;;5011189;28;20080;-62
2023/03/13 09:24:13;;;;;;;5.40;2.40;;;;;;;;;;5009542;28;20025;-63
2023/03/13 09:26:38;;;;;;;3.10;1.83;;;;;;;;;;4977678;28;20052;-62
2023/03/13 09:29:04;;;;;;;3.67;1.80;;;;;;;;;;5008223;28;20066;-62
2023/03/13 09:31:29;;;;;;;2.90;1.60;;;;;;;;;;5007282;28;20048;-62
2023/03/13 09:33:54;;;;;;;5.80;2.00;;;;;;;;;;5006226;28;20053;-63
2023/03/13 09:36:20;;;;;;;2.67;1.75;;;;;;;;;;5009775;28;20140;-64
2023/03/13 09:38:45;;;;;;;3.58;1.77;;;;;;;;;;5009108;28;20041;-63
2023/03/13 09:41:16;;;;;;;2.63;1.90;;;;;;;;;;5008183;28;20451;-64
2023/03/13 09:43:47;;;;;;;3.47;2.00;;;;;;;;;;5010287;28;20855;-63
2023/03/13 09:46:21;;;;;;;2.92;2.10;;;;;;;;;;5009304;28;20412;-63
2023/03/13 09:48:51;;;;;;;5.70;2.10;;;;;;;;;;4976490;28;20042;-63
2023/03/13 09:51:35;;;;;;;3.50;1.65;;;;;;;;;;4999916;28;20036;-63
2023/03/13 09:54:02;;;;;;;4.30;2.10;;;;;;;;;;4977161;28;20442;-64
2023/03/13 09:56:32;;;;;;;2.70;1.92;;;;;;;;;;4974590;28;20491;-63
2023/03/13 09:58:58;;;;;;;2.95;1.90;;;;;;;;;;5017374;28;20129;-63
2023/03/13 10:01:25;;;;;;;3.55;2.10;;;;;;;;;;4987760;28;20113;-63
2023/03/13 10:03:58;;;;;;;3.67;1.75;;;;;;;;;;5002917;28;20107;-64
2023/03/13 10:06:23;;;;;;;3.05;1.77;;;;;;;;;;5006707;28;20056;-62
2023/03/13 10:08:48;;;;;;;2.50;1.63;;;;;;;;;;5024437;28;20041;-62
2023/03/13 10:11:23;;;;;;;3.87;2.17;;;;;;;;;;5023012;28;20041;-61
2023/03/13 10:14:07;;;;;;;4.28;2.30;;;;;;;;;;5004310;28;20033;-66
2023/03/13 10:16:52;;;;;;;3.15;1.85;;;;;;;;;;5010004;28;20358;-61
2023/03/13 10:19:18;;;;;;;3.65;2.00;;;;;;;;;;4996325;28;20064;-64
2023/03/13 10:21:44;;;;;;;2.72;1.90;;;;;;;;;;5003917;28;20030;-63
2023/03/13 10:24:17;;;;;;;2.72;1.75;;;;;;;;;;5009635;28;20429;-64
2023/03/13 10:26:42;;;;;;;3.60;2.08;;;;;;;;;;4987131;28;20559;-65
2023/03/13 10:29:26;;;;;;;2.92;2.00;;;;;;;;;;5011408;28;20030;-63
2023/03/13 10:31:58;;;;;;;2.60;1.83;;;;;;;;;;5003594;28;20034;-63
2023/03/13 10:34:24;;;;;;;3.25;2.10;;;;;;;;;;4994343;28;20050;-64
2023/03/13 10:36:53;;;;;;;4.40;2.20;;;;;;;;;;4989542;28;20191;-64
2023/03/13 10:39:20;;;;;;;2.90;1.80;;;;;;;;;;4972027;28;20568;-64
2023/03/13 10:41:45;;;;;;;3.67;1.90;;;;;;;;;;4989690;28;20065;-63
2023/03/13 10:44:17;;;;;;;3.00;2.17;;;;;;;;;;4988686;28;20037;-63
2023/03/13 10:46:43;;;;;;;2.85;1.83;;;;;;;;;;4990969;28;20511;-66
2023/03/13 10:49:15;;;;;;;2.30;1.77;;;;;;;;;;4991943;28;20038;-64
2023/03/13 10:51:43;;;;;;;3.00;2.00;;;;;;;;;;4989868;28;20045;-65
2023/03/13 10:54:14;;;;;;;3.28;1.75;;;;;;;;;;4991478;28;20054;-64
2023/03/13 10:56:40;;;;;;;3.10;1.65;;;;;;;;;;4990120;28;20518;-63
2023/03/13 10:59:14;;;;;;;2.97;2.10;;;;;;;;;;4988139;28;20468;-62
2023/03/13 11:01:41;;;;;;;3.58;2.10;;;;;;;;;;4977652;28;20816;-64
2023/03/13 11:04:27;;;;;;;3.72;1.70;;;;;;;;;;4993977;28;20038;-69
2023/03/13 11:06:54;;;;;;;2.95;1.73;;;;;;;;;;4970603;28;20066;-65
2023/03/13 11:09:19;;;;;;;2.97;2.00;;;;;;;;;;4978728;28;20392;-65
2023/03/13 11:11:44;;;;;;;2.60;1.85;;;;;;;;;;4990138;28;20037;-64
2023/03/13 11:14:14;;;;;;;3.15;1.83;;;;;;;;;;4988985;28;20095;-63
2023/03/13 11:16:42;;;;;;;2.67;1.88;;;;;;;;;;4978196;28;20099;-64
2023/03/13 11:19:13;;;;;;;3.70;2.13;;;;;;;;;;4993818;28;20116;-64
2023/03/13 11:21:48;;;;;;;3.67;2.10;;;;;;;;;;4994332;28;20395;-64
2023/03/13 11:24:20;;;;;;;3.28;1.90;;;;;;;;;;4989681;28;20031;-65
2023/03/13 11:27:11;;;;;;;2.78;1.90;;;;;;;;;;4977072;28;20069;-63
2023/03/13 11:29:36;;;;;;;2.80;1.88;;;;;;;;;;4988856;28;20038;-63
2023/03/13 11:32:03;;;;;;;3.13;1.77;;;;;;;;;;4989120;28;20782;-64
2023/03/13 11:35:01;;;;;;;2.72;2.00;;;;;;;;;;4979620;28;20307;-64
2023/03/13 11:37:27;;;;;;;2.38;1.80;;;;;;;;;;4955916;28;20038;-68
2023/03/13 11:40:07;;;;;;;2.75;1.80;;;;;;;;;;4988955;28;20127;-64
2023/03/13 11:42:36;;;;;;;2.85;2.03;;;;;;;;;;4989989;28;20046;-64
2023/03/13 11:45:15;;;;;;;2.90;1.80;;;;;;;;;;4990456;28;20549;-64
2023/03/13 11:47:47;;;;;;;2.55;2.20;;;;;;;;;;4991232;28;20312;-64
2023/03/13 11:50:28;;;;;;;2.85;2.10;;;;;;;;;;4973554;28;20041;-63
2023/03/13 11:52:57;;;;;;;3.10;2.00;;;;;;;;;;4989915;28;20045;-64
2023/03/13 11:55:22;;;;;;;2.92;2.05;;;;;;;;;;4995324;28;20435;-62
2023/03/13 11:58:06;;;;;;;2.80;2.00;;;;;;;;;;4992680;28;20044;-63
2023/03/13 12:00:39;;;;;;;2.47;1.77;;;;;;;;;;4989423;28;20042;-63
2023/03/13 12:03:08;;;;;;;2.65;1.90;;;;;;;;;;4990074;28;20038;-63
2023/03/13 12:05:37;;;;;;;3.30;1.90;;;;;;;;;;4990360;28;20104;-64
2023/03/13 12:08:03;;;;;;;2.92;2.15;;;;;;;;;;4988420;28;20050;-64
2023/03/13 12:10:33;;;;;;;3.70;1.90;;;;;;;;;;4991221;28;20108;-67
2023/03/13 12:13:17;;;;;;;3.72;2.20;;;;;;;;;;4997161;28;20049;-64
2023/03/13 12:15:43;;;;;;;2.53;1.95;;;;;;;;;;4993651;28;20403;-65
2023/03/13 12:18:15;;;;;;;2.70;1.95;;;;;;;;;;4981065;28;20053;-63
2023/03/13 12:20:40;;;;;;;3.00;2.20;;;;;;;;;;4991819;28;20054;-62
2023/03/13 12:23:05;;;;;;;3.90;1.90;;;;;;;;;;4991269;28;20440;-64
2023/03/13 12:25:31;;;;;;;2.90;2.10;;;;;;;;;;4992648;28;20514;-65
2023/03/13 12:28:03;;;;;;;3.67;2.30;;;;;;;;;;4991588;28;20053;-64
2023/03/13 12:30:32;;;;;;;2.85;2.10;;;;;;;;;;4989100;28;20035;-65
2023/03/13 12:33:00;;;;;;;2.53;2.17;;;;;;;;;;4995051;28;20049;-65
2023/03/13 12:35:31;;;;;;;4.00;2.10;;;;;;;;;;4995696;28;20045;-65
2023/03/13 12:38:16;;;;;;;2.50;1.70;;;;;;;;;;4998383;28;20049;-65
2023/03/13 12:41:00;;;;;;;3.40;1.80;;;;;;;;;;5011942;28;20038;-64
2023/03/13 12:43:32;;;;;;;3.90;1.92;;;;;;;;;;5011573;28;20033;-63
2023/03/13 12:45:57;;;;;;;2.72;1.90;;;;;;;;;;5009849;28;20069;-63
2023/03/13 12:48:22;;;;;;;3.80;2.10;;;;;;;;;;5010076;28;20468;-63
2023/03/13 12:50:47;;;;;;;3.53;2.10;;;;;;;;;;5011198;28;20105;-63
2023/03/13 12:53:18;;;;;;;3.13;1.97;;;;;;;;;;5010406;28;20030;-63
2023/03/13 12:56:03;;;;;;;2.92;2.00;;;;;;;;;;4997594;28;20038;-63
2023/03/13 12:58:29;;;;;;;2.92;1.80;;;;;;;;;;5009821;28;20049;-63
2023/03/13 13:00:54;;;;;;;2.80;1.95;;;;;;;;;;4983620;28;20043;-63
2023/03/13 13:03:19;;;;;;;3.10;2.10;;;;;;;;;;4983214;28;20095;-63
2023/03/13 13:06:03;;;;;;;4.72;1.88;;;;;;;;;;5010424;28;20033;-63
2023/03/13 13:08:30;;;;;;;3.17;1.98;;;;;;;;;;5011067;28;20057;-65
2023/03/13 13:11:15;;;;;;;3.03;1.90;;;;;;;;;;5009582;28;20095;-64
2023/03/13 13:13:41;;;;;;;2.88;1.88;;;;;;;;;;5008607;28;20033;-62
2023/03/13 13:16:06;;;;;;;2.63;1.90;;;;;;;;;;5008225;28;20081;-62
2023/03/13 13:18:32;;;;;;;4.68;2.10;;;;;;;;;;4991448;28;20045;-63
2023/03/13 13:21:00;;;;;;;2.70;2.00;;;;;;;;;;4992870;28;20229;-62
2023/03/13 13:23:32;;;;;;;2.75;1.90;;;;;;;;;;5011751;28;20096;-63
2023/03/13 13:26:16;;;;;;;2.67;2.25;;;;;;;;;;4999102;28;20116;-64
2023/03/13 13:28:42;;;;;;;2.78;2.00;;;;;;;;;;5009719;28;20451;-62
2023/03/13 13:31:28;;;;;;;6.47;4.55;;;;;;;;;;4994040;28;20045;-65
2023/03/13 13:33:53;;;;;;;7.90;6.95;;;;;;;;;;5000056;28;20103;-64
2023/03/13 13:36:20;;;;;;;8.17;5.43;;;;;;;;;;4996229;28;20603;-64
2023/03/13 13:38:45;;;;;;;7.15;5.22;;;;;;;;;;5004006;28;20284;-64
2023/03/13 13:41:10;;;;;;;7.20;5.32;;;;;;;;;;5003327;28;20486;-63
2023/03/13 13:43:39;;;;;;;7.53;5.53;;;;;;;;;;5009692;28;20112;-64
2023/03/13 13:46:09;;;;;;;6.75;4.85;;;;;;;;;;4981617;28;20098;-63
2023/03/13 13:48:38;;;;;;;7.07;4.57;;;;;;;;;;5013395;28;20127;-63
2023/03/13 13:51:10;;;;;;;5.47;4.68;;;;;;;;;;5003916;28;20051;-63
2023/03/13 13:53:41;;;;;;;5.90;4.80;;;;;;;;;;5012219;28;20068;-65
2023/03/13 13:56:26;;;;;;;5.57;4.97;;;;;;;;;;5014841;28;20042;-64
2023/03/13 13:58:51;;;;;;;7.25;4.68;;;;;;;;;;5008812;28;20034;-65
2023/03/13 14:01:16;;;;;;;7.33;5.03;;;;;;;;;;5006469;28;20049;-65
2023/03/13 14:03:42;;;;;;;7.40;4.80;;;;;;;;;;5002155;28;20026;-67
2023/03/13 14:06:10;;;;;;;6.70;5.33;;;;;;;;;;5015717;28;20044;-64
2023/03/13 14:08:38;;;;;;;6.20;4.65;;;;;;;;;;5012986;28;20326;-67
2023/03/13 14:11:22;;;;;;;5.93;4.80;;;;;;;;;;5007717;28;20178;-65
2023/03/13 14:14:06;;;;;;;7.30;6.57;;;;;;;;;;5026245;28;20037;-66
2023/03/13 14:16:31;;;;;;;10.90;6.85;;;;;;;;;;5019478;28;20041;-67
2023/03/13 14:18:57;;;;;;;9.73;6.77;;;;;;;;;;4997508;28;20036;-67
2023/03/13 14:21:22;;;;;;;8.30;7.13;;;;;;;;;;4996140;28;20033;-65
2023/03/13 14:23:47;;;;;;;10.63;7.60;;;;;;;;;;5024015;28;20049;-64
2023/03/13 14:26:13;;;;;;;9.67;7.77;;;;;;;;;;5011503;28;20049;-63
2023/03/13 14:28:40;;;;;;;9.38;7.55;;;;;;;;;;5008796;28;20052;-63
2023/03/13 14:31:05;;;;;;;10.30;7.68;;;;;;;;;;5022421;28;20033;-64
2023/03/13 14:33:30;;;;;;;8.38;7.45;;;;;;;;;;5004940;28;20475;-61
2023/03/13 14:35:56;;;;;;;8.47;7.53;;;;;;;;;;5020297;28;20239;-64
2023/03/13 14:38:24;;;;;;;8.02;7.18;;;;;;;;;;4995062;28;20040;-63
2023/03/13 14:40:50;;;;;;;9.60;7.35;;;;;;;;;;4996824;28;20033;-63
2023/03/13 14:43:24;;;;;;;9.57;7.00;;;;;;;;;;5011572;28;20049;-65
2023/03/13 14:45:50;;;;;;;10.10;7.30;;;;;;;;;;5014970;28;20409;-62